sensor_id;sensor_type;location;lat;lon;timestamp;P1;durP1;ratioP1;P2;durP2;ratioP2
17890;SDS011;9071;48.220;14.480;2024-03-02T00:01:18;83.37;;;36.07;;
17890;SDS011;9071;48.220;14.480;2024-03-02T00:06:20;79.20;;;36.13;;
17890;SDS011;9071;48.220;14.480;2024-03-02T00:11:23;94.57;;;39.63;;
17890;SDS011;9071;48.220;14.480;2024-03-02T00:16:30;101.10;;;40.80;;
17890;SDS011;9071;48.220;14.480;2024-03-02T00:21:32;89.17;;;35.77;;
17890;SDS011;9071;48.220;14.480;2024-03-02T00:26:35;83.77;;;36.80;;
17890;SDS011;9071;48.220;14.480;2024-03-02T00:31:38;93.57;;;38.83;;
17890;SDS011;9071;48.220;14.480;2024-03-02T00:36:41;92.73;;;36.33;;
17890;SDS011;9071;48.220;14.480;2024-03-02T00:41:44;94.23;;;37.50;;
17890;SDS011;9071;48.220;14.480;2024-03-02T00:46:47;95.20;;;37.03;;
17890;SDS011;9071;48.220;14.480;2024-03-02T00:51:51;99.17;;;38.57;;
17890;SDS011;9071;48.220;14.480;2024-03-02T00:56:54;97.23;;;41.20;;
17890;SDS011;9071;48.220;14.480;2024-03-02T01:01:57;91.27;;;38.23;;
17890;SDS011;9071;48.220;14.480;2024-03-02T01:06:59;90.20;;;38.10;;
17890;SDS011;9071;48.220;14.480;2024-03-02T01:12:01;94.37;;;37.30;;
17890;SDS011;9071;48.220;14.480;2024-03-02T01:17:05;96.07;;;37.83;;
17890;SDS011;9071;48.220;14.480;2024-03-02T01:22:08;93.23;;;38.57;;
17890;SDS011;9071;48.220;14.480;2024-03-02T01:27:11;93.37;;;39.10;;
17890;SDS011;9071;48.220;14.480;2024-03-02T01:32:14;87.03;;;38.70;;
17890;SDS011;9071;48.220;14.480;2024-03-02T01:37:16;87.37;;;38.13;;
17890;SDS011;9071;48.220;14.480;2024-03-02T01:42:18;82.17;;;35.83;;
17890;SDS011;9071;48.220;14.480;2024-03-02T01:47:22;91.67;;;39.13;;
17890;SDS011;9071;48.220;14.480;2024-03-02T01:52:24;99.43;;;39.80;;
17890;SDS011;9071;48.220;14.480;2024-03-02T01:57:26;97.60;;;40.47;;
17890;SDS011;9071;48.220;14.480;2024-03-02T02:02:29;97.80;;;40.20;;
17890;SDS011;9071;48.220;14.480;2024-03-02T02:07:31;108.73;;;41.63;;
17890;SDS011;9071;48.220;14.480;2024-03-02T02:12:35;101.40;;;42.13;;
17890;SDS011;9071;48.220;14.480;2024-03-02T02:17:39;96.27;;;40.33;;
17890;SDS011;9071;48.220;14.480;2024-03-02T02:22:42;95.47;;;40.17;;
17890;SDS011;9071;48.220;14.480;2024-03-02T02:27:57;93.17;;;37.30;;
17890;SDS011;9071;48.220;14.480;2024-03-02T02:32:59;95.57;;;37.33;;
17890;SDS011;9071;48.220;14.480;2024-03-02T02:38:03;84.53;;;36.40;;
17890;SDS011;9071;48.220;14.480;2024-03-02T02:43:05;103.17;;;40.97;;
17890;SDS011;9071;48.220;14.480;2024-03-02T02:48:08;88.90;;;36.97;;
17890;SDS011;9071;48.220;14.480;2024-03-02T02:53:11;88.23;;;37.10;;
17890;SDS011;9071;48.220;14.480;2024-03-02T02:58:13;91.40;;;38.63;;
17890;SDS011;9071;48.220;14.480;2024-03-02T03:03:15;88.77;;;35.87;;
17890;SDS011;9071;48.220;14.480;2024-03-02T03:08:19;94.63;;;37.03;;
17890;SDS011;9071;48.220;14.480;2024-03-02T03:13:23;78.07;;;34.07;;
17890;SDS011;9071;48.220;14.480;2024-03-02T03:18:25;96.20;;;40.27;;
17890;SDS011;9071;48.220;14.480;2024-03-02T03:23:29;88.20;;;36.07;;
17890;SDS011;9071;48.220;14.480;2024-03-02T03:28:31;90.20;;;37.23;;
17890;SDS011;9071;48.220;14.480;2024-03-02T03:33:33;79.60;;;34.27;;
17890;SDS011;9071;48.220;14.480;2024-03-02T03:38:37;93.00;;;37.50;;
17890;SDS011;9071;48.220;14.480;2024-03-02T03:43:39;99.53;;;38.17;;
17890;SDS011;9071;48.220;14.480;2024-03-02T03:48:41;90.70;;;37.57;;
17890;SDS011;9071;48.220;14.480;2024-03-02T03:53:44;94.20;;;39.37;;
17890;SDS011;9071;48.220;14.480;2024-03-02T03:58:46;94.67;;;36.70;;
17890;SDS011;9071;48.220;14.480;2024-03-02T04:03:48;90.37;;;38.50;;
17890;SDS011;9071;48.220;14.480;2024-03-02T04:08:52;95.13;;;37.77;;
17890;SDS011;9071;48.220;14.480;2024-03-02T04:13:54;93.47;;;38.57;;
17890;SDS011;9071;48.220;14.480;2024-03-02T04:18:56;95.20;;;37.90;;
17890;SDS011;9071;48.220;14.480;2024-03-02T04:23:59;91.30;;;38.07;;
17890;SDS011;9071;48.220;14.480;2024-03-02T04:29:01;86.17;;;36.50;;
17890;SDS011;9071;48.220;14.480;2024-03-02T04:34:03;99.83;;;37.90;;
17890;SDS011;9071;48.220;14.480;2024-03-02T04:39:06;106.13;;;42.27;;
17890;SDS011;9071;48.220;14.480;2024-03-02T04:44:11;90.63;;;37.20;;
17890;SDS011;9071;48.220;14.480;2024-03-02T04:49:13;90.87;;;35.53;;
17890;SDS011;9071;48.220;14.480;2024-03-02T04:54:16;100.37;;;39.80;;
17890;SDS011;9071;48.220;14.480;2024-03-02T04:59:18;98.67;;;40.07;;
17890;SDS011;9071;48.220;14.480;2024-03-02T05:04:20;103.00;;;40.37;;
17890;SDS011;9071;48.220;14.480;2024-03-02T05:09:24;136.87;;;54.83;;
17890;SDS011;9071;48.220;14.480;2024-03-02T05:14:26;129.10;;;49.57;;
17890;SDS011;9071;48.220;14.480;2024-03-02T05:19:29;110.47;;;48.03;;
17890;SDS011;9071;48.220;14.480;2024-03-02T05:24:32;111.17;;;44.67;;
17890;SDS011;9071;48.220;14.480;2024-03-02T05:29:34;103.93;;;40.87;;
17890;SDS011;9071;48.220;14.480;2024-03-02T05:34:36;101.03;;;39.80;;
17890;SDS011;9071;48.220;14.480;2024-03-02T05:39:39;100.97;;;39.53;;
17890;SDS011;9071;48.220;14.480;2024-03-02T05:44:43;109.00;;;41.53;;
17890;SDS011;9071;48.220;14.480;2024-03-02T05:49:45;103.07;;;39.63;;
17890;SDS011;9071;48.220;14.480;2024-03-02T05:54:48;105.50;;;39.70;;
17890;SDS011;9071;48.220;14.480;2024-03-02T05:59:50;105.00;;;41.87;;
17890;SDS011;9071;48.220;14.480;2024-03-02T06:04:53;95.80;;;39.33;;
17890;SDS011;9071;48.220;14.480;2024-03-02T06:09:58;96.07;;;40.80;;
17890;SDS011;9071;48.220;14.480;2024-03-02T06:15:00;96.47;;;39.57;;
17890;SDS011;9071;48.220;14.480;2024-03-02T06:20:03;95.53;;;39.73;;
17890;SDS011;9071;48.220;14.480;2024-03-02T06:25:09;88.93;;;38.57;;
17890;SDS011;9071;48.220;14.480;2024-03-02T06:30:12;93.90;;;37.63;;
17890;SDS011;9071;48.220;14.480;2024-03-02T06:35:14;89.40;;;40.13;;
17890;SDS011;9071;48.220;14.480;2024-03-02T06:40:17;79.53;;;35.60;;
17890;SDS011;9071;48.220;14.480;2024-03-02T06:45:21;86.70;;;37.47;;
17890;SDS011;9071;48.220;14.480;2024-03-02T06:50:23;86.93;;;37.13;;
17890;SDS011;9071;48.220;14.480;2024-03-02T06:55:26;72.63;;;35.07;;
17890;SDS011;9071;48.220;14.480;2024-03-02T07:00:28;74.53;;;36.57;;
17890;SDS011;9071;48.220;14.480;2024-03-02T07:05:30;80.23;;;36.10;;
17890;SDS011;9071;48.220;14.480;2024-03-02T07:10:34;76.97;;;36.87;;
17890;SDS011;9071;48.220;14.480;2024-03-02T07:15:36;78.10;;;38.37;;
17890;SDS011;9071;48.220;14.480;2024-03-02T07:21:00;70.10;;;33.53;;
17890;SDS011;9071;48.220;14.480;2024-03-02T07:26:03;66.63;;;33.37;;
17890;SDS011;9071;48.220;14.480;2024-03-02T07:31:06;66.03;;;32.27;;
17890;SDS011;9071;48.220;14.480;2024-03-02T07:36:10;69.87;;;34.30;;
17890;SDS011;9071;48.220;14.480;2024-03-02T07:41:13;77.77;;;36.23;;
17890;SDS011;9071;48.220;14.480;2024-03-02T07:46:15;80.30;;;36.87;;
17890;SDS011;9071;48.220;14.480;2024-03-02T07:51:18;72.00;;;36.30;;
17890;SDS011;9071;48.220;14.480;2024-03-02T07:56:21;75.47;;;36.50;;
17890;SDS011;9071;48.220;14.480;2024-03-02T08:01:23;68.97;;;33.67;;
17890;SDS011;9071;48.220;14.480;2024-03-02T08:06:25;66.03;;;32.50;;
17890;SDS011;9071;48.220;14.480;2024-03-02T08:11:30;64.10;;;33.80;;
17890;SDS011;9071;48.220;14.480;2024-03-02T08:16:32;61.70;;;31.10;;
17890;SDS011;9071;48.220;14.480;2024-03-02T08:21:34;59.90;;;31.83;;
17890;SDS011;9071;48.220;14.480;2024-03-02T08:26:37;58.00;;;30.13;;
17890;SDS011;9071;48.220;14.480;2024-03-02T08:31:39;65.60;;;32.43;;
17890;SDS011;9071;48.220;14.480;2024-03-02T08:36:41;63.20;;;31.97;;
17890;SDS011;9071;48.220;14.480;2024-03-02T08:41:45;61.87;;;31.87;;
17890;SDS011;9071;48.220;14.480;2024-03-02T08:46:47;64.33;;;30.13;;
17890;SDS011;9071;48.220;14.480;2024-03-02T08:51:49;60.83;;;32.07;;
17890;SDS011;9071;48.220;14.480;2024-03-02T08:56:57;61.17;;;30.53;;
17890;SDS011;9071;48.220;14.480;2024-03-02T09:01:59;57.13;;;28.67;;
17890;SDS011;9071;48.220;14.480;2024-03-02T09:07:01;52.60;;;28.17;;
17890;SDS011;9071;48.220;14.480;2024-03-02T09:12:05;54.50;;;29.33;;
17890;SDS011;9071;48.220;14.480;2024-03-02T09:17:08;44.37;;;25.70;;
17890;SDS011;9071;48.220;14.480;2024-03-02T09:22:11;48.17;;;25.00;;
17890;SDS011;9071;48.220;14.480;2024-03-02T09:27:15;46.67;;;25.50;;
17890;SDS011;9071;48.220;14.480;2024-03-02T09:32:17;44.27;;;23.27;;
17890;SDS011;9071;48.220;14.480;2024-03-02T09:37:19;41.77;;;23.73;;
17890;SDS011;9071;48.220;14.480;2024-03-02T09:42:22;42.27;;;23.33;;
17890;SDS011;9071;48.220;14.480;2024-03-02T09:47:26;41.17;;;23.17;;
17890;SDS011;9071;48.220;14.480;2024-03-02T09:52:28;38.10;;;22.43;;
17890;SDS011;9071;48.220;14.480;2024-03-02T09:57:31;42.13;;;21.90;;
17890;SDS011;9071;48.220;14.480;2024-03-02T10:02:34;43.60;;;23.23;;
17890;SDS011;9071;48.220;14.480;2024-03-02T10:07:36;37.37;;;20.67;;
17890;SDS011;9071;48.220;14.480;2024-03-02T10:12:39;38.27;;;20.00;;
17890;SDS011;9071;48.220;14.480;2024-03-02T10:17:41;37.50;;;20.07;;
17890;SDS011;9071;48.220;14.480;2024-03-02T10:22:43;37.30;;;20.67;;
17890;SDS011;9071;48.220;14.480;2024-03-02T10:27:47;37.53;;;20.40;;
17890;SDS011;9071;48.220;14.480;2024-03-02T10:32:52;37.53;;;20.60;;
17890;SDS011;9071;48.220;14.480;2024-03-02T10:37:55;33.77;;;19.17;;
17890;SDS011;9071;48.220;14.480;2024-03-02T10:42:58;39.73;;;20.73;;
17890;SDS011;9071;48.220;14.480;2024-03-02T10:48:03;40.50;;;20.60;;
17890;SDS011;9071;48.220;14.480;2024-03-02T10:53:06;36.23;;;19.83;;
17890;SDS011;9071;48.220;14.480;2024-03-02T10:58:10;37.60;;;20.73;;
17890;SDS011;9071;48.220;14.480;2024-03-02T11:03:15;36.47;;;19.93;;
17890;SDS011;9071;48.220;14.480;2024-03-02T11:08:18;38.07;;;20.17;;
17890;SDS011;9071;48.220;14.480;2024-03-02T11:13:24;38.67;;;20.13;;
17890;SDS011;9071;48.220;14.480;2024-03-02T11:18:33;36.77;;;20.87;;
17890;SDS011;9071;48.220;14.480;2024-03-02T11:23:36;35.07;;;19.67;;
17890;SDS011;9071;48.220;14.480;2024-03-02T11:28:39;38.83;;;21.90;;
17890;SDS011;9071;48.220;14.480;2024-03-02T11:33:41;34.73;;;19.73;;
17890;SDS011;9071;48.220;14.480;2024-03-02T11:38:43;33.97;;;19.33;;
17890;SDS011;9071;48.220;14.480;2024-03-02T11:43:48;35.37;;;19.57;;
17890;SDS011;9071;48.220;14.480;2024-03-02T11:48:50;32.17;;;18.97;;
17890;SDS011;9071;48.220;14.480;2024-03-02T11:53:52;35.80;;;20.00;;
17890;SDS011;9071;48.220;14.480;2024-03-02T11:58:58;31.60;;;19.23;;
17890;SDS011;9071;48.220;14.480;2024-03-02T12:04:01;34.83;;;18.73;;
17890;SDS011;9071;48.220;14.480;2024-03-02T12:09:04;31.33;;;17.60;;
17890;SDS011;9071;48.220;14.480;2024-03-02T12:14:11;35.37;;;17.47;;
17890;SDS011;9071;48.220;14.480;2024-03-02T12:19:14;31.57;;;17.17;;
17890;SDS011;9071;48.220;14.480;2024-03-02T12:24:17;29.77;;;18.23;;
17890;SDS011;9071;48.220;14.480;2024-03-02T12:29:21;31.50;;;17.50;;
17890;SDS011;9071;48.220;14.480;2024-03-02T12:34:24;33.43;;;18.23;;
17890;SDS011;9071;48.220;14.480;2024-03-02T12:39:27;31.80;;;18.13;;
17890;SDS011;9071;48.220;14.480;2024-03-02T12:44:32;30.57;;;17.97;;
17890;SDS011;9071;48.220;14.480;2024-03-02T12:49:34;29.70;;;17.53;;
17890;SDS011;9071;48.220;14.480;2024-03-02T12:54:36;34.37;;;18.73;;
17890;SDS011;9071;48.220;14.480;2024-03-02T12:59:40;30.67;;;17.47;;
17890;SDS011;9071;48.220;14.480;2024-03-02T13:04:52;30.20;;;17.23;;
17890;SDS011;9071;48.220;14.480;2024-03-02T13:09:55;29.73;;;17.70;;
17890;SDS011;9071;48.220;14.480;2024-03-02T13:14:59;30.20;;;17.93;;
17890;SDS011;9071;48.220;14.480;2024-03-02T13:20:02;29.60;;;17.23;;
17890;SDS011;9071;48.220;14.480;2024-03-02T13:25:08;29.60;;;17.10;;
17890;SDS011;9071;48.220;14.480;2024-03-02T13:30:12;29.83;;;16.77;;
17890;SDS011;9071;48.220;14.480;2024-03-02T13:35:14;29.23;;;18.00;;
17890;SDS011;9071;48.220;14.480;2024-03-02T13:40:16;34.10;;;18.27;;
17890;SDS011;9071;48.220;14.480;2024-03-02T13:45:21;29.33;;;16.83;;
17890;SDS011;9071;48.220;14.480;2024-03-02T13:50:23;30.97;;;17.03;;
17890;SDS011;9071;48.220;14.480;2024-03-02T13:55:25;28.93;;;17.30;;
17890;SDS011;9071;48.220;14.480;2024-03-02T14:00:29;30.00;;;16.80;;
17890;SDS011;9071;48.220;14.480;2024-03-02T14:05:31;28.03;;;16.40;;
17890;SDS011;9071;48.220;14.480;2024-03-02T14:10:33;24.63;;;15.73;;
17890;SDS011;9071;48.220;14.480;2024-03-02T14:15:37;27.80;;;17.47;;
17890;SDS011;9071;48.220;14.480;2024-03-02T14:20:39;30.50;;;16.90;;
17890;SDS011;9071;48.220;14.480;2024-03-02T14:25:42;28.10;;;16.10;;
17890;SDS011;9071;48.220;14.480;2024-03-02T14:30:45;23.43;;;14.87;;
17890;SDS011;9071;48.220;14.480;2024-03-02T14:35:47;26.93;;;16.10;;
17890;SDS011;9071;48.220;14.480;2024-03-02T14:40:49;28.87;;;16.93;;
17890;SDS011;9071;48.220;14.480;2024-03-02T14:45:53;28.73;;;16.97;;
17890;SDS011;9071;48.220;14.480;2024-03-02T14:50:55;26.17;;;15.97;;
17890;SDS011;9071;48.220;14.480;2024-03-02T14:55:58;26.30;;;16.97;;
17890;SDS011;9071;48.220;14.480;2024-03-02T15:01:01;27.03;;;16.57;;
17890;SDS011;9071;48.220;14.480;2024-03-02T15:06:05;26.27;;;17.43;;
17890;SDS011;9071;48.220;14.480;2024-03-02T15:11:08;25.83;;;17.03;;
17890;SDS011;9071;48.220;14.480;2024-03-02T15:16:12;29.27;;;18.10;;
17890;SDS011;9071;48.220;14.480;2024-03-02T15:21:14;26.70;;;16.23;;
17890;SDS011;9071;48.220;14.480;2024-03-02T15:26:16;28.60;;;17.60;;
17890;SDS011;9071;48.220;14.480;2024-03-02T15:31:19;32.23;;;18.97;;
17890;SDS011;9071;48.220;14.480;2024-03-02T15:36:22;35.17;;;21.13;;
17890;SDS011;9071;48.220;14.480;2024-03-02T15:41:24;36.57;;;21.63;;
17890;SDS011;9071;48.220;14.480;2024-03-02T15:46:27;35.40;;;20.57;;
17890;SDS011;9071;48.220;14.480;2024-03-02T15:51:29;34.50;;;21.30;;
17890;SDS011;9071;48.220;14.480;2024-03-02T15:56:31;38.70;;;22.87;;
17890;SDS011;9071;48.220;14.480;2024-03-02T16:01:35;39.23;;;21.90;;
17890;SDS011;9071;48.220;14.480;2024-03-02T16:06:37;40.03;;;23.47;;
17890;SDS011;9071;48.220;14.480;2024-03-02T16:11:39;38.00;;;22.10;;
17890;SDS011;9071;48.220;14.480;2024-03-02T16:16:42;41.00;;;24.07;;
17890;SDS011;9071;48.220;14.480;2024-03-02T16:21:44;42.23;;;23.73;;
17890;SDS011;9071;48.220;14.480;2024-03-02T16:26:47;43.23;;;24.40;;
17890;SDS011;9071;48.220;14.480;2024-03-02T16:31:50;46.13;;;24.10;;
17890;SDS011;9071;48.220;14.480;2024-03-02T16:36:52;41.93;;;24.07;;
17890;SDS011;9071;48.220;14.480;2024-03-02T16:41:54;45.87;;;25.87;;
17890;SDS011;9071;48.220;14.480;2024-03-02T16:46:57;46.60;;;25.70;;
17890;SDS011;9071;48.220;14.480;2024-03-02T16:51:59;50.03;;;28.30;;
17890;SDS011;9071;48.220;14.480;2024-03-02T16:57:02;53.43;;;31.30;;
17890;SDS011;9071;48.220;14.480;2024-03-02T17:02:05;52.10;;;28.47;;
17890;SDS011;9071;48.220;14.480;2024-03-02T17:07:08;50.13;;;27.70;;
17890;SDS011;9071;48.220;14.480;2024-03-02T17:12:10;49.23;;;27.87;;
17890;SDS011;9071;48.220;14.480;2024-03-02T17:17:13;54.80;;;29.03;;
17890;SDS011;9071;48.220;14.480;2024-03-02T17:22:17;60.47;;;29.97;;
17890;SDS011;9071;48.220;14.480;2024-03-02T17:27:19;53.27;;;28.77;;
17890;SDS011;9071;48.220;14.480;2024-03-02T17:32:23;66.43;;;34.00;;
17890;SDS011;9071;48.220;14.480;2024-03-02T17:37:25;58.33;;;31.67;;
17890;SDS011;9071;48.220;14.480;2024-03-02T17:42:27;52.30;;;28.57;;
17890;SDS011;9071;48.220;14.480;2024-03-02T17:47:30;59.23;;;30.27;;
17890;SDS011;9071;48.220;14.480;2024-03-02T17:52:32;56.03;;;29.73;;
17890;SDS011;9071;48.220;14.480;2024-03-02T17:57:34;60.53;;;30.10;;
17890;SDS011;9071;48.220;14.480;2024-03-02T18:02:38;57.50;;;30.57;;
17890;SDS011;9071;48.220;14.480;2024-03-02T18:07:40;59.23;;;32.10;;
17890;SDS011;9071;48.220;14.480;2024-03-02T18:12:43;64.13;;;34.67;;
17890;SDS011;9071;48.220;14.480;2024-03-02T18:17:47;67.80;;;34.43;;
17890;SDS011;9071;48.220;14.480;2024-03-02T18:22:49;65.70;;;36.73;;
17890;SDS011;9071;48.220;14.480;2024-03-02T18:27:52;66.50;;;34.53;;
17890;SDS011;9071;48.220;14.480;2024-03-02T18:32:55;72.00;;;36.13;;
17890;SDS011;9071;48.220;14.480;2024-03-02T18:37:57;61.33;;;33.40;;
17890;SDS011;9071;48.220;14.480;2024-03-02T18:42:59;69.57;;;35.83;;
17890;SDS011;9071;48.220;14.480;2024-03-02T18:48:04;74.23;;;33.47;;
17890;SDS011;9071;48.220;14.480;2024-03-02T18:53:06;66.60;;;33.47;;
17890;SDS011;9071;48.220;14.480;2024-03-02T18:58:08;65.60;;;34.60;;
17890;SDS011;9071;48.220;14.480;2024-03-02T19:03:12;72.03;;;35.83;;
17890;SDS011;9071;48.220;14.480;2024-03-02T19:08:14;71.60;;;35.90;;
17890;SDS011;9071;48.220;14.480;2024-03-02T19:13:18;83.03;;;38.30;;
17890;SDS011;9071;48.220;14.480;2024-03-02T19:18:22;81.67;;;39.27;;
17890;SDS011;9071;48.220;14.480;2024-03-02T19:23:24;86.67;;;40.23;;
17890;SDS011;9071;48.220;14.480;2024-03-02T19:28:26;86.53;;;41.00;;
17890;SDS011;9071;48.220;14.480;2024-03-02T19:33:29;76.27;;;36.00;;
17890;SDS011;9071;48.220;14.480;2024-03-02T19:38:31;101.60;;;46.03;;
17890;SDS011;9071;48.220;14.480;2024-03-02T19:43:35;92.83;;;42.00;;
17890;SDS011;9071;48.220;14.480;2024-03-02T19:48:38;82.03;;;40.97;;
17890;SDS011;9071;48.220;14.480;2024-03-02T19:53:40;78.50;;;36.60;;
17890;SDS011;9071;48.220;14.480;2024-03-02T19:58:42;74.97;;;37.40;;
17890;SDS011;9071;48.220;14.480;2024-03-02T20:03:46;75.80;;;36.33;;
17890;SDS011;9071;48.220;14.480;2024-03-02T20:08:50;90.63;;;41.70;;
17890;SDS011;9071;48.220;14.480;2024-03-02T20:13:52;81.97;;;41.30;;
17890;SDS011;9071;48.220;14.480;2024-03-02T20:18:55;84.23;;;40.73;;
17890;SDS011;9071;48.220;14.480;2024-03-02T20:23:57;80.23;;;41.07;;
17890;SDS011;9071;48.220;14.480;2024-03-02T20:28:59;82.30;;;40.93;;
17890;SDS011;9071;48.220;14.480;2024-03-02T20:34:02;87.57;;;42.57;;
17890;SDS011;9071;48.220;14.480;2024-03-02T20:39:04;84.93;;;40.67;;
17890;SDS011;9071;48.220;14.480;2024-03-02T20:44:06;92.13;;;41.07;;
17890;SDS011;9071;48.220;14.480;2024-03-02T20:49:10;79.57;;;37.53;;
17890;SDS011;9071;48.220;14.480;2024-03-02T20:54:12;86.37;;;38.20;;
17890;SDS011;9071;48.220;14.480;2024-03-02T20:59:14;85.07;;;38.30;;
17890;SDS011;9071;48.220;14.480;2024-03-02T21:04:19;77.83;;;38.43;;
17890;SDS011;9071;48.220;14.480;2024-03-02T21:09:21;82.80;;;37.60;;
17890;SDS011;9071;48.220;14.480;2024-03-02T21:14:23;85.63;;;39.13;;
17890;SDS011;9071;48.220;14.480;2024-03-02T21:19:26;80.13;;;37.63;;
17890;SDS011;9071;48.220;14.480;2024-03-02T21:24:28;75.37;;;36.00;;
17890;SDS011;9071;48.220;14.480;2024-03-02T21:29:30;80.87;;;37.17;;
17890;SDS011;9071;48.220;14.480;2024-03-02T21:34:34;80.63;;;38.83;;
17890;SDS011;9071;48.220;14.480;2024-03-02T21:39:36;73.20;;;34.53;;
17890;SDS011;9071;48.220;14.480;2024-03-02T21:44:38;75.73;;;35.70;;
17890;SDS011;9071;48.220;14.480;2024-03-02T21:49:41;91.30;;;39.50;;
17890;SDS011;9071;48.220;14.480;2024-03-02T21:54:43;73.87;;;34.47;;
17890;SDS011;9071;48.220;14.480;2024-03-02T21:59:46;82.23;;;36.23;;
17890;SDS011;9071;48.220;14.480;2024-03-02T22:04:49;80.60;;;35.63;;
17890;SDS011;9071;48.220;14.480;2024-03-02T22:09:51;72.73;;;34.67;;
17890;SDS011;9071;48.220;14.480;2024-03-02T22:14:53;81.37;;;35.33;;
17890;SDS011;9071;48.220;14.480;2024-03-02T22:19:57;83.13;;;36.30;;
17890;SDS011;9071;48.220;14.480;2024-03-02T22:24:59;74.83;;;33.93;;
17890;SDS011;9071;48.220;14.480;2024-03-02T22:30:02;75.77;;;33.97;;
17890;SDS011;9071;48.220;14.480;2024-03-02T22:35:06;74.13;;;35.60;;
17890;SDS011;9071;48.220;14.480;2024-03-02T22:40:09;76.73;;;35.27;;
17890;SDS011;9071;48.220;14.480;2024-03-02T22:45:12;86.07;;;38.33;;
17890;SDS011;9071;48.220;14.480;2024-03-02T22:50:16;86.53;;;39.37;;
17890;SDS011;9071;48.220;14.480;2024-03-02T22:55:18;90.33;;;41.07;;
17890;SDS011;9071;48.220;14.480;2024-03-02T23:00:20;85.47;;;38.50;;
17890;SDS011;9071;48.220;14.480;2024-03-02T23:05:35;88.53;;;40.23;;
17890;SDS011;9071;48.220;14.480;2024-03-02T23:10:37;92.23;;;41.10;;
17890;SDS011;9071;48.220;14.480;2024-03-02T23:15:39;85.57;;;39.60;;
17890;SDS011;9071;48.220;14.480;2024-03-02T23:20:42;78.60;;;35.03;;
17890;SDS011;9071;48.220;14.480;2024-03-02T23:25:45;72.73;;;35.60;;
17890;SDS011;9071;48.220;14.480;2024-03-02T23:30:47;91.90;;;38.93;;
17890;SDS011;9071;48.220;14.480;2024-03-02T23:35:50;73.13;;;34.97;;
17890;SDS011;9071;48.220;14.480;2024-03-02T23:40:53;74.97;;;35.07;;
17890;SDS011;9071;48.220;14.480;2024-03-02T23:46:11;80.40;;;35.10;;
17890;SDS011;9071;48.220;14.480;2024-03-02T23:51:15;84.27;;;34.93;;
17890;SDS011;9071;48.220;14.480;2024-03-02T23:56:17;86.47;;;37.07;;
